Time;durP1;ratioP1;P1;durP2;ratioP2;P2;SDS_P1;SDS_P2;PMS_P1;PMS_P2;Temp;Humidity;BMP_temperature;BMP_pressure;BME280_temperature;BME280_humidity;BME280_pressure;Samples;Min_cycle;Max_cycle;Signal;HPM_P1;HPM_P2
2021/12/30 00:02:28;;;;;;;;;;;14.00;99.90;;;;;;4999155;28;19933;-80
2021/12/30 00:04:59;;;;;;;;;;;14.00;99.90;;;;;;4998696;28;19925;-79
2021/12/30 00:07:28;;;;;;;;;;;14.20;99.90;;;;;;4995133;28;19933;-80
2021/12/30 00:09:59;;;;;;;;;;;14.00;99.90;;;;;;4998768;28;19930;-79
2021/12/30 00:12:32;;;;;;;;;;;14.00;99.90;;;;;;4998708;28;19941;-79
2021/12/30 00:15:06;;;;;;;;;;;14.00;99.90;;;;;;4992774;28;19937;-82
2021/12/30 00:17:35;;;;;;;;;;;14.00;99.90;;;;;;4982064;28;19933;-79
2021/12/30 00:20:06;;;;;;;;;;;14.00;99.90;;;;;;4999584;28;19927;-79
2021/12/30 00:22:41;;;;;;;;;;;14.00;99.90;;;;;;5013214;28;19934;-80
2021/12/30 00:25:12;;;;;;;;;;;14.00;99.90;;;;;;4997460;28;19940;-79
2021/12/30 00:27:42;;;;;;;;;;;14.00;99.90;;;;;;4999575;28;19925;-79
2021/12/30 00:30:12;;;;;;;;;;;14.10;99.90;;;;;;4982137;28;19933;-79
2021/12/30 00:32:44;;;;;;;;;;;14.20;99.90;;;;;;4996915;28;19929;-79
2021/12/30 00:35:12;;;;;;;;;;;14.30;99.90;;;;;;4993096;28;19925;-79
2021/12/30 00:37:46;;;;;;;;;;;14.20;99.90;;;;;;4991483;28;19938;-80
2021/12/30 00:40:14;;;;;;;;;;;14.20;99.90;;;;;;4987327;28;19976;-81
2021/12/30 00:42:50;;;;;;;;;;;14.20;99.90;;;;;;4999356;28;19930;-81
2021/12/30 00:45:18;;;;;;;;;;;14.30;99.90;;;;;;4994364;28;19926;-84
2021/12/30 00:47:46;;;;;;;;;;;14.30;99.90;;;;;;4989758;28;19940;-85
2021/12/30 00:50:14;;;;;;;;;;;14.00;99.90;;;;;;5004396;28;19929;-81
2021/12/30 00:52:44;;;;;;;;;;;14.30;99.90;;;;;;5005614;28;19932;-82
2021/12/30 00:55:12;;;;;;;;;;;13.80;99.90;;;;;;4989684;28;19950;-80
2021/12/30 00:57:42;;;;;;;;;;;14.30;99.90;;;;;;4990957;28;19937;-80
2021/12/30 01:00:14;;;;;;;;;;;14.30;99.90;;;;;;4986157;28;19926;-82
2021/12/30 01:02:42;;;;;;;;;;;14.30;99.90;;;;;;5005755;28;19930;-80
2021/12/30 01:05:12;;;;;;;;;;;14.40;99.90;;;;;;4983138;28;19950;-78
2021/12/30 01:07:39;;;;;;;;;;;14.30;99.90;;;;;;4998508;28;19926;-80
2021/12/30 01:10:09;;;;;;;;;;;14.40;99.90;;;;;;4976115;28;19929;-79
2021/12/30 01:12:38;;;;;;;;;;;13.80;99.90;;;;;;4972628;28;19926;-82
2021/12/30 01:15:09;;;;;;;;;;;14.40;99.90;;;;;;4981433;28;19934;-84
2021/12/30 01:17:58;;;;;;;;;;;14.40;99.90;;;;;;4994892;28;19931;-79
2021/12/30 01:20:26;;;;;;;;;;;14.40;99.90;;;;;;4970327;28;19934;-78
2021/12/30 01:22:54;;;;;;;;;;;14.40;99.90;;;;;;4992319;28;19925;-79
2021/12/30 01:25:21;;;;;;;;;;;14.30;99.90;;;;;;4997417;28;20428;-79
2021/12/30 01:27:49;;;;;;;;;;;14.30;99.90;;;;;;4984342;28;19927;-79
2021/12/30 01:30:18;;;;;;;;;;;14.30;99.90;;;;;;4983230;28;19940;-79
2021/12/30 01:32:46;;;;;;;;;;;14.40;99.90;;;;;;4983147;28;19930;-81
2021/12/30 01:35:21;;;;;;;;;;;14.30;99.90;;;;;;4997919;28;19936;-80
2021/12/30 01:37:49;;;;;;;;;;;14.30;99.90;;;;;;4983112;28;19926;-86
2021/12/30 01:40:18;;;;;;;;;;;14.30;99.90;;;;;;4983059;28;19926;-79
2021/12/30 01:42:45;;;;;;;;;;;14.40;99.90;;;;;;4998986;28;20411;-81
2021/12/30 01:45:13;;;;;;;;;;;14.30;99.90;;;;;;4981996;28;19932;-79
2021/12/30 01:47:50;;;;;;;;;;;14.40;99.90;;;;;;4981939;28;19941;-80
2021/12/30 01:50:19;;;;;;;;;;;14.30;99.90;;;;;;4983626;28;19926;-84
2021/12/30 01:52:47;;;;;;;;;;;14.40;99.90;;;;;;4982129;28;19926;-78
2021/12/30 01:55:17;;;;;;;;;;;14.30;99.90;;;;;;4979943;28;19930;-85
2021/12/30 01:57:47;;;;;;;;;;;14.40;99.90;;;;;;4980417;28;19930;-80
2021/12/30 02:00:18;;;;;;;;;;;14.40;99.90;;;;;;4981827;28;19941;-84
2021/12/30 02:02:47;;;;;;;;;;;14.40;99.90;;;;;;4997133;28;19946;-81
2021/12/30 02:05:15;;;;;;;;;;;14.30;99.90;;;;;;4983049;28;19941;-79
2021/12/30 02:07:43;;;;;;;;;;;14.40;99.90;;;;;;4979799;28;19933;-82
2021/12/30 02:10:13;;;;;;;;;;;14.40;99.90;;;;;;4969259;28;20277;-80
2021/12/30 02:12:41;;;;;;;;;;;14.40;99.90;;;;;;4981673;28;20537;-80
2021/12/30 02:15:10;;;;;;;;;;;14.40;99.90;;;;;;4981769;28;19937;-81
2021/12/30 02:17:38;;;;;;;;;;;12.60;99.90;;;;;;4983524;28;20265;-82
2021/12/30 02:20:09;;;;;;;;;;;14.40;99.90;;;;;;4982691;28;19934;-86
2021/12/30 02:22:37;;;;;;;;;;;14.40;99.90;;;;;;4988217;28;19930;-87
2021/12/30 02:25:06;;;;;;;;;;;14.50;99.90;;;;;;4973029;28;19930;-83
2021/12/30 02:27:33;;;;;;;;;;;14.50;99.90;;;;;;4989306;28;19926;-80
2021/12/30 02:30:02;;;;;;;;;;;14.40;99.90;;;;;;4986869;28;19941;-82
2021/12/30 02:32:30;;;;;;;;;;;14.50;99.90;;;;;;4985699;28;20376;-82
2021/12/30 02:34:57;;;;;;;;;;;14.40;99.90;;;;;;5001771;28;19933;-79
2021/12/30 02:37:25;;;;;;;;;;;14.40;99.90;;;;;;4986234;28;19961;-79
2021/12/30 02:39:54;;;;;;;;;;;14.40;99.90;;;;;;4969679;28;19940;-79
2021/12/30 02:42:25;;;;;;;;;;;14.50;99.90;;;;;;5002262;28;19930;-79
2021/12/30 02:44:53;;;;;;;;;;;14.50;99.90;;;;;;4986717;28;20379;-79
2021/12/30 02:47:21;;;;;;;;;;;14.50;99.90;;;;;;4969087;28;19927;-79
2021/12/30 02:49:48;;;;;;;;;;;14.50;99.90;;;;;;4968234;29;19926;-80
2021/12/30 02:52:16;;;;;;;;;;;14.50;99.90;;;;;;4967970;29;19934;-79
2021/12/30 02:54:44;;;;;;;;;;;14.50;99.90;;;;;;4969206;29;19933;-82
2021/12/30 02:57:11;;;;;;;;;;;14.50;99.90;;;;;;4983614;28;19937;-80
2021/12/30 02:59:39;;;;;;;;;;;14.40;99.90;;;;;;4988423;28;19926;-80
2021/12/30 03:02:07;;;;;;;;;;;14.40;99.90;;;;;;4987970;28;19930;-79
2021/12/30 03:04:36;;;;;;;;;;;14.40;99.90;;;;;;4988235;28;19960;-79
2021/12/30 03:07:03;;;;;;;;;;;14.40;99.90;;;;;;4990284;28;19926;-79
2021/12/30 03:09:32;;;;;;;;;;;14.40;99.90;;;;;;5001665;28;19926;-79
2021/12/30 03:12:00;;;;;;;;;;;14.40;99.90;;;;;;4999523;28;19926;-80
2021/12/30 03:14:37;;;;;;;;;;;14.40;99.90;;;;;;4983780;28;19926;-81
2021/12/30 03:17:05;;;;;;;;;;;14.30;99.90;;;;;;4984764;28;19928;-79
2021/12/30 03:19:33;;;;;;;;;;;14.30;99.90;;;;;;5003531;28;19932;-80
2021/12/30 03:22:01;;;;;;;;;;;14.30;99.90;;;;;;4976541;28;19930;-81
2021/12/30 03:24:29;;;;;;;;;;;14.30;99.90;;;;;;5005708;28;19926;-80
2021/12/30 03:26:57;;;;;;;;;;;14.30;99.90;;;;;;5006258;28;19926;-85
2021/12/30 03:29:25;;;;;;;;;;;15.80;99.90;;;;;;4986461;28;19941;-83
2021/12/30 03:31:53;;;;;;;;;;;14.30;99.90;;;;;;4984500;28;19933;-86
2021/12/30 03:34:20;;;;;;;;;;;14.20;99.90;;;;;;4981779;28;19930;-81
2021/12/30 03:36:48;;;;;;;;;;;14.30;99.90;;;;;;4999923;28;19932;-86
2021/12/30 03:39:16;;;;;;;;;;;14.30;99.90;;;;;;4984953;28;19930;-81
2021/12/30 03:41:43;;;;;;;;;;;15.30;99.90;;;;;;4968401;28;19931;-84
2021/12/30 03:44:11;;;;;;;;;;;14.30;99.90;;;;;;4974225;28;19930;-84
2021/12/30 03:46:39;;;;;;;;;;;14.30;99.90;;;;;;4991064;28;19926;-82
2021/12/30 03:49:07;;;;;;;;;;;14.30;99.90;;;;;;4989547;28;20366;-81
2021/12/30 03:51:38;;;;;;;;;;;14.30;99.90;;;;;;5000914;28;19938;-79
2021/12/30 03:54:07;;;;;;;;;;;14.30;99.90;;;;;;4966616;29;19929;-79
2021/12/30 03:56:35;;;;;;;;;;;14.30;99.90;;;;;;4981158;28;19933;-79
2021/12/30 03:59:03;;;;;;;;;;;14.30;99.90;;;;;;4969850;28;19927;-80
2021/12/30 04:01:32;;;;;;;;;;;14.30;99.90;;;;;;4986823;28;20491;-81
2021/12/30 04:04:00;;;;;;;;;;;14.30;99.90;;;;;;4985579;28;19926;-79
2021/12/30 04:06:29;;;;;;;;;;;14.30;99.90;;;;;;5001645;28;19937;-79
2021/12/30 04:08:57;;;;;;;;;;;14.40;99.90;;;;;;4985536;28;19934;-79
2021/12/30 04:11:26;;;;;;;;;;;14.30;99.90;;;;;;4970017;28;19933;-79
2021/12/30 04:13:54;;;;;;;;;;;14.30;99.90;;;;;;4985426;28;19926;-79
2021/12/30 04:16:21;;;;;;;;;;;14.30;99.90;;;;;;4987179;28;19930;-79
2021/12/30 04:18:49;;;;;;;;;;;14.30;99.90;;;;;;4985895;28;19933;-78
2021/12/30 04:21:20;;;;;;;;;;;14.30;99.90;;;;;;4986364;28;19941;-83
2021/12/30 04:23:48;;;;;;;;;;;14.30;99.90;;;;;;5001458;28;19933;-80
2021/12/30 04:26:16;;;;;;;;;;;14.40;99.90;;;;;;4986779;28;19937;-81
2021/12/30 04:28:44;;;;;;;;;;;14.40;99.90;;;;;;4985578;28;19938;-79
2021/12/30 04:31:12;;;;;;;;;;;14.30;99.90;;;;;;4984974;28;19930;-80
2021/12/30 04:33:40;;;;;;;;;;;14.40;99.90;;;;;;5001566;28;19930;-79
2021/12/30 04:36:07;;;;;;;;;;;14.40;99.90;;;;;;4986238;28;20420;-79
2021/12/30 04:38:37;;;;;;;;;;;14.30;99.90;;;;;;5000367;28;19926;-82
2021/12/30 04:41:07;;;;;;;;;;;14.40;99.90;;;;;;5002216;28;19926;-79
2021/12/30 04:43:35;;;;;;;;;;;14.40;99.90;;;;;;5001775;28;19926;-78
2021/12/30 04:46:03;;;;;;;;;;;14.40;99.90;;;;;;4969029;28;19936;-81
2021/12/30 04:48:31;;;;;;;;;;;14.30;99.90;;;;;;5001617;28;19926;-80
2021/12/30 04:50:59;;;;;;;;;;;14.40;99.90;;;;;;4985838;28;19930;-81
2021/12/30 04:53:26;;;;;;;;;;;14.40;99.90;;;;;;5000713;28;19932;-80
2021/12/30 04:55:54;;;;;;;;;;;14.40;99.90;;;;;;5000921;28;19930;-78
2021/12/30 04:58:22;;;;;;;;;;;14.40;99.90;;;;;;4985596;28;19937;-78
2021/12/30 05:00:49;;;;;;;;;;;14.40;99.90;;;;;;4985346;28;19936;-79
2021/12/30 05:03:17;;;;;;;;;;;14.40;99.90;;;;;;4986351;28;19930;-80
2021/12/30 05:05:46;;;;;;;;;;;14.40;99.90;;;;;;4985283;28;19933;-79
2021/12/30 05:08:14;;;;;;;;;;;14.90;99.90;;;;;;4985821;28;19926;-81
2021/12/30 05:10:42;;;;;;;;;;;14.40;99.90;;;;;;4939783;28;19945;-79
2021/12/30 05:13:10;;;;;;;;;;;14.30;99.90;;;;;;4981626;28;19937;-82
2021/12/30 05:15:39;;;;;;;;;;;14.30;99.90;;;;;;4968143;28;19936;-79
2021/12/30 05:18:11;;;;;;;;;;;14.40;99.90;;;;;;4965137;29;20493;-82
2021/12/30 05:20:39;;;;;;;;;;;14.30;99.90;;;;;;4963263;29;19933;-79
2021/12/30 05:23:07;;;;;;;;;;;14.30;99.90;;;;;;4979611;28;19935;-80
2021/12/30 05:25:35;;;;;;;;;;;14.30;99.90;;;;;;4993631;28;19932;-79
2021/12/30 05:28:03;;;;;;;;;;;14.20;99.90;;;;;;4965703;28;19927;-83
2021/12/30 05:30:31;;;;;;;;;;;14.20;99.90;;;;;;4966466;29;19926;-78
2021/12/30 05:32:58;;;;;;;;;;;14.30;99.90;;;;;;4966085;29;19933;-82
2021/12/30 05:35:26;;;;;;;;;;;14.20;99.90;;;;;;4954689;28;19937;-80
2021/12/30 05:37:55;;;;;;;;;;;14.20;99.90;;;;;;4983491;28;19926;-79
2021/12/30 05:40:23;;;;;;;;;;;14.10;99.90;;;;;;4984033;28;19926;-79
2021/12/30 05:42:50;;;;;;;;;;;14.10;99.90;;;;;;4986545;28;19926;-85
2021/12/30 05:45:19;;;;;;;;;;;14.20;99.90;;;;;;4985632;28;19933;-79
2021/12/30 05:47:49;;;;;;;;;;;14.00;99.90;;;;;;4985287;28;19930;-79
2021/12/30 05:50:18;;;;;;;;;;;14.00;99.90;;;;;;4982089;28;19926;-79
2021/12/30 05:52:45;;;;;;;;;;;14.00;99.90;;;;;;4997844;28;19950;-79
2021/12/30 05:55:14;;;;;;;;;;;14.00;99.90;;;;;;4980307;28;19926;-81
2021/12/30 05:57:42;;;;;;;;;;;13.90;99.90;;;;;;4983332;28;19945;-80
2021/12/30 06:00:11;;;;;;;;;;;14.00;99.90;;;;;;4981812;28;19941;-80
2021/12/30 06:02:39;;;;;;;;;;;12.50;99.90;;;;;;4983420;28;19933;-80
2021/12/30 06:05:07;;;;;;;;;;;14.00;99.90;;;;;;4998345;28;20386;-79
2021/12/30 06:07:35;;;;;;;;;;;13.90;99.90;;;;;;4965711;28;19941;-80
2021/12/30 06:10:03;;;;;;;;;;;14.00;99.90;;;;;;4982800;28;19926;-79
2021/12/30 06:12:31;;;;;;;;;;;13.90;99.90;;;;;;4982314;28;19930;-80
2021/12/30 06:14:59;;;;;;;;;;;13.90;99.90;;;;;;4994663;28;19937;-81
2021/12/30 06:17:27;;;;;;;;;;;14.00;99.90;;;;;;4962612;29;19930;-83
2021/12/30 06:19:54;;;;;;;;;;;14.00;99.90;;;;;;4963992;29;19927;-83
2021/12/30 06:22:22;;;;;;;;;;;14.00;99.90;;;;;;4994278;28;19937;-80
2021/12/30 06:24:49;;;;;;;;;;;14.00;99.90;;;;;;4996240;28;19931;-79
2021/12/30 06:27:17;;;;;;;;;;;14.50;99.90;;;;;;4997896;28;19936;-83
2021/12/30 06:29:45;;;;;;;;;;;14.00;99.90;;;;;;4997224;28;19926;-81
2021/12/30 06:32:12;;;;;;;;;;;14.10;99.90;;;;;;4997848;28;19941;-79
2021/12/30 06:34:40;;;;;;;;;;;14.00;99.90;;;;;;4983748;28;19926;-81
2021/12/30 06:37:08;;;;;;;;;;;14.10;99.90;;;;;;4998022;28;19937;-80
2021/12/30 06:39:36;;;;;;;;;;;14.20;99.90;;;;;;4995831;28;19926;-81
2021/12/30 06:42:03;;;;;;;;;;;14.10;99.90;;;;;;4965472;28;19937;-80
2021/12/30 06:44:31;;;;;;;;;;;14.20;99.90;;;;;;4982233;28;19932;-81
2021/12/30 06:47:01;;;;;;;;;;;14.10;99.90;;;;;;4977355;28;19927;-79
2021/12/30 06:49:35;;;;;;;;;;;14.10;99.90;;;;;;4946700;29;19926;-79
2021/12/30 06:52:05;;;;;;;;;;;14.10;99.90;;;;;;4962216;28;19931;-79
2021/12/30 06:54:33;;;;;;;;;;;14.10;99.90;;;;;;4962230;29;19935;-79
2021/12/30 06:57:02;;;;;;;;;;;14.10;99.90;;;;;;4975906;28;19934;-79
2021/12/30 06:59:31;;;;;;;;;;;14.10;99.90;;;;;;4981654;28;20394;-87
2021/12/30 07:01:59;;;;;;;;;;;14.00;99.90;;;;;;4980231;28;19930;-79
2021/12/30 07:04:27;;;;;;;;;;;14.10;99.90;;;;;;4980395;28;19930;-80
2021/12/30 07:06:55;;;;;;;;;;;14.10;99.90;;;;;;4981618;28;19930;-79
2021/12/30 07:09:23;;;;;;;;;;;14.00;99.90;;;;;;4968946;28;20318;-79
2021/12/30 07:11:54;;;;;;;;;;;14.00;99.90;;;;;;5001078;28;19933;-80
2021/12/30 07:14:22;;;;;;;;;;;14.00;99.90;;;;;;4985881;28;19930;-79
2021/12/30 07:16:50;;;;;;;;;;;14.10;99.90;;;;;;4997756;28;19927;-79
2021/12/30 07:19:18;;;;;;;;;;;14.00;99.90;;;;;;4966607;29;19930;-81
2021/12/30 07:21:46;;;;;;;;;;;14.10;99.90;;;;;;4981031;28;19930;-79
2021/12/30 07:24:14;;;;;;;;;;;14.10;99.90;;;;;;4965017;29;19933;-79
2021/12/30 07:26:42;;;;;;;;;;;14.10;99.90;;;;;;4999601;28;19930;-85
2021/12/30 07:29:09;;;;;;;;;;;14.10;99.90;;;;;;4983995;28;19934;-80
2021/12/30 07:31:37;;;;;;;;;;;14.10;99.90;;;;;;5000131;28;20309;-81
2021/12/30 07:34:05;;;;;;;;;;;14.00;99.90;;;;;;4971432;28;20423;-85
2021/12/30 07:36:33;;;;;;;;;;;14.10;99.90;;;;;;4991599;28;20010;-84
2021/12/30 07:39:02;;;;;;;;;;;14.10;99.90;;;;;;4981814;28;19926;-79
2021/12/30 07:41:30;;;;;;;;;;;14.10;99.90;;;;;;4985990;28;19946;-79
2021/12/30 07:43:57;;;;;;;;;;;14.10;99.90;;;;;;4985865;28;19930;-79
2021/12/30 07:46:25;;;;;;;;;;;14.10;99.90;;;;;;4967980;28;20377;-79
2021/12/30 07:48:53;;;;;;;;;;;14.10;99.90;;;;;;4986728;28;19930;-78
2021/12/30 07:51:20;;;;;;;;;;;14.10;99.90;;;;;;4986820;28;19926;-79
2021/12/30 07:53:48;;;;;;;;;;;14.10;99.90;;;;;;4985195;28;19953;-80
2021/12/30 07:56:16;;;;;;;;;;;14.20;99.90;;;;;;4985081;28;19926;-84
2021/12/30 07:58:43;;;;;;;;;;;13.20;99.90;;;;;;4984360;28;19926;-80
2021/12/30 08:01:13;;;;;;;;;;;14.20;99.90;;;;;;4983525;28;19926;-82
2021/12/30 08:03:41;;;;;;;;;;;14.20;99.90;;;;;;4999130;28;19945;-81
2021/12/30 08:06:09;;;;;;;;;;;14.20;99.90;;;;;;4992138;28;19930;-78
2021/12/30 08:08:37;;;;;;;;;;;14.20;99.90;;;;;;4999197;28;19937;-88
2021/12/30 08:11:08;;;;;;;;;;;14.20;99.90;;;;;;4984441;28;19930;-80
2021/12/30 08:13:37;;;;;;;;;;;14.20;99.90;;;;;;4984560;28;19926;-79
2021/12/30 08:16:05;;;;;;;;;;;14.20;99.90;;;;;;4984322;28;19937;-79
2021/12/30 08:18:32;;;;;;;;;;;14.20;99.90;;;;;;4983760;28;19930;-80
2021/12/30 08:21:00;;;;;;;;;;;14.30;99.90;;;;;;4992781;28;19949;-79
2021/12/30 08:23:28;;;;;;;;;;;14.30;99.90;;;;;;4999032;28;19933;-79
2021/12/30 08:25:56;;;;;;;;;;;14.30;99.90;;;;;;4985337;28;19926;-87
2021/12/30 08:28:25;;;;;;;;;;;14.30;99.90;;;;;;4967903;28;20324;-78
2021/12/30 08:30:53;;;;;;;;;;;14.30;99.90;;;;;;4985128;28;19926;-79
2021/12/30 08:33:21;;;;;;;;;;;14.30;99.90;;;;;;4994047;28;19926;-78
2021/12/30 08:35:49;;;;;;;;;;;14.30;99.90;;;;;;4984215;28;19925;-79
2021/12/30 08:38:17;;;;;;;;;;;14.30;99.90;;;;;;4981488;28;19926;-79
2021/12/30 08:40:47;;;;;;;;;;;14.30;99.90;;;;;;4998274;28;20312;-79
2021/12/30 08:43:16;;;;;;;;;;;14.30;99.90;;;;;;4996288;28;19927;-79
2021/12/30 08:45:45;;;;;;;;;;;14.20;99.90;;;;;;4964360;29;19926;-84
2021/12/30 08:48:15;;;;;;;;;;;14.20;99.90;;;;;;4965748;29;19926;-82
2021/12/30 08:50:43;;;;;;;;;;;14.20;99.90;;;;;;4981597;28;19931;-79
2021/12/30 08:53:14;;;;;;;;;;;14.30;99.90;;;;;;4966164;29;19937;-78
2021/12/30 08:55:42;;;;;;;;;;;14.20;99.90;;;;;;4968100;28;19930;-83
2021/12/30 08:58:10;;;;;;;;;;;14.20;99.90;;;;;;4984032;28;19926;-80
2021/12/30 09:00:53;;;;;;;;;;;14.30;99.90;;;;;;4982230;28;19936;-79
2021/12/30 09:03:20;;;;;;;;;;;14.10;99.90;;;;;;4982472;28;19941;-85
2021/12/30 09:05:48;;;;;;;;;;;14.10;99.90;;;;;;4983570;28;19926;-80
2021/12/30 09:08:16;;;;;;;;;;;14.20;99.90;;;;;;4982566;28;19936;-80
2021/12/30 09:10:49;;;;;;;;;;;14.20;99.90;;;;;;4983688;28;19926;-79
2021/12/30 09:13:21;;;;;;;;;;;14.20;99.90;;;;;;4986518;28;19926;-88
2021/12/30 09:15:49;;;;;;;;;;;14.10;99.90;;;;;;4961602;28;19930;-81
2021/12/30 09:18:19;;;;;;;;;;;14.10;99.90;;;;;;4985393;28;19949;-79
2021/12/30 09:20:46;;;;;;;;;;;14.10;99.90;;;;;;4982867;28;19933;-84
2021/12/30 09:23:15;;;;;;;;;;;14.10;99.90;;;;;;4973355;28;19926;-82
2021/12/30 09:25:42;;;;;;;;;;;14.20;99.90;;;;;;4955114;28;19941;-79
2021/12/30 09:28:12;;;;;;;;;;;14.20;99.90;;;;;;4981924;28;19926;-81
2021/12/30 09:30:42;;;;;;;;;;;14.10;99.90;;;;;;4983522;28;19933;-79
2021/12/30 09:33:15;;;;;;;;;;;14.20;99.90;;;;;;4994145;28;20371;-82
2021/12/30 09:35:44;;;;;;;;;;;14.20;99.90;;;;;;4991458;28;19932;-80
2021/12/30 09:38:17;;;;;;;;;;;14.10;99.90;;;;;;4995273;28;19926;-81
2021/12/30 09:40:48;;;;;;;;;;;14.30;99.90;;;;;;4984374;28;19936;-79
2021/12/30 09:43:16;;;;;;;;;;;14.30;99.90;;;;;;4983163;28;19926;-80
2021/12/30 09:45:45;;;;;;;;;;;14.30;99.90;;;;;;4982588;28;19957;-80
2021/12/30 09:48:15;;;;;;;;;;;14.30;99.90;;;;;;4983182;28;19926;-82
2021/12/30 09:50:48;;;;;;;;;;;14.00;99.90;;;;;;4997763;28;20174;-80
2021/12/30 09:53:18;;;;;;;;;;;14.30;99.90;;;;;;4997994;28;19930;-79
2021/12/30 09:55:47;;;;;;;;;;;14.30;99.90;;;;;;4982859;28;20309;-81
2021/12/30 09:58:14;;;;;;;;;;;14.30;99.90;;;;;;4982306;28;20496;-79
2021/12/30 10:00:42;;;;;;;;;;;14.30;99.90;;;;;;4982184;28;19934;-79
2021/12/30 10:03:09;;;;;;;;;;;14.40;99.90;;;;;;4996832;28;20110;-80
2021/12/30 10:05:39;;;;;;;;;;;14.40;99.90;;;;;;4982502;28;19937;-81
2021/12/30 10:08:09;;;;;;;;;;;14.40;99.90;;;;;;4970341;28;19931;-79
2021/12/30 10:10:39;;;;;;;;;;;14.50;99.90;;;;;;4979362;28;19964;-79
2021/12/30 10:13:19;;;;;;;;;;;14.50;99.90;;;;;;4981184;28;19934;-79
2021/12/30 10:15:49;;;;;;;;;;;14.10;99.90;;;;;;4973800;28;19930;-82
2021/12/30 10:18:18;;;;;;;;;;;14.50;99.90;;;;;;4980256;28;20128;-79
2021/12/30 10:20:47;;;;;;;;;;;14.50;99.90;;;;;;4993572;28;19926;-79
2021/12/30 10:23:16;;;;;;;;;;;14.50;99.90;;;;;;4986764;28;19930;-79
2021/12/30 10:25:47;;;;;;;;;;;14.50;99.90;;;;;;4987302;28;19937;-81
2021/12/30 10:28:17;;;;;;;;;;;14.50;99.90;;;;;;4988805;28;19936;-79
2021/12/30 10:30:45;;;;;;;;;;;14.50;99.90;;;;;;4969531;28;19926;-79
2021/12/30 10:33:15;;;;;;;;;;;14.60;99.90;;;;;;4978377;28;19934;-83
2021/12/30 10:35:47;;;;;;;;;;;14.60;99.90;;;;;;4987251;28;19930;-82
2021/12/30 10:38:15;;;;;;;;;;;14.50;99.90;;;;;;4983068;28;19933;-82
2021/12/30 10:40:46;;;;;;;;;;;14.60;99.90;;;;;;4981594;28;19926;-80
2021/12/30 10:43:13;;;;;;;;;;;14.50;99.90;;;;;;4987518;28;20171;-82
2021/12/30 10:45:41;;;;;;;;;;;14.50;99.90;;;;;;5007181;28;19930;-82
2021/12/30 10:48:19;;;;;;;;;;;14.50;99.90;;;;;;4982919;28;20492;-83
2021/12/30 10:51:12;;;;;;;;;;;14.50;99.90;;;;;;5003731;28;19937;-81
2021/12/30 10:53:40;;;;;;;;;;;14.50;99.90;;;;;;4998948;28;19926;-79
2021/12/30 10:56:26;;;;;;;;;;;14.60;99.90;;;;;;4954065;28;19930;-80
2021/12/30 10:58:55;;;;;;;;;;;14.60;99.90;;;;;;5011145;28;19934;-81
2021/12/30 11:01:24;;;;;;;;;;;14.60;99.90;;;;;;4971492;28;19930;-86
2021/12/30 11:03:58;;;;;;;;;;;14.60;99.90;;;;;;4978805;28;19932;-80
2021/12/30 11:06:26;;;;;;;;;;;14.60;99.90;;;;;;5001593;28;19937;-79
2021/12/30 11:09:04;;;;;;;;;;;14.70;99.90;;;;;;4968730;28;19930;-80
2021/12/30 11:11:32;;;;;;;;;;;14.70;99.90;;;;;;4981523;28;19934;-80
2021/12/30 11:14:00;;;;;;;;;;;13.80;99.90;;;;;;4978647;28;20410;-79
2021/12/30 11:16:27;;;;;;;;;;;14.70;99.90;;;;;;4999654;28;20121;-79
2021/12/30 11:18:56;;;;;;;;;;;16.40;99.90;;;;;;4987662;28;20476;-79
2021/12/30 11:21:36;;;;;;;;;;;14.90;99.90;;;;;;4988285;28;19937;-79
2021/12/30 11:24:05;;;;;;;;;;;14.90;99.90;;;;;;4985447;28;20348;-79
2021/12/30 11:26:33;;;;;;;;;;;14.90;99.90;;;;;;4988421;28;19942;-80
2021/12/30 11:29:05;;;;;;;;;;;14.50;99.90;;;;;;5011232;28;19934;-79
2021/12/30 11:31:34;;;;;;;;;;;15.10;99.90;;;;;;5000617;28;19926;-77
2021/12/30 11:34:02;;;;;;;;;;;15.10;99.90;;;;;;4991003;28;20706;-76
2021/12/30 11:36:30;;;;;;;;;;;15.30;99.90;;;;;;5004052;28;19922;-78
2021/12/30 11:38:58;;;;;;;;;;;15.20;99.90;;;;;;4992095;28;19933;-76
2021/12/30 11:41:28;;;;;;;;;;;15.20;99.90;;;;;;4987582;28;19926;-78
2021/12/30 11:43:56;;;;;;;;;;;15.20;99.90;;;;;;4988813;28;19926;-77
2021/12/30 11:46:43;;;;;;;;;;;15.20;99.90;;;;;;4984999;28;19927;-79
2021/12/30 11:49:15;;;;;;;;;;;15.20;99.90;;;;;;4984782;28;20438;-77
2021/12/30 11:51:45;;;;;;;;;;;15.20;99.90;;;;;;4982850;28;19930;-79
2021/12/30 11:54:32;;;;;;;;;;;15.20;99.90;;;;;;4993390;28;19941;-78
2021/12/30 11:57:19;;;;;;;;;;;15.20;99.90;;;;;;4998663;28;20299;-77
2021/12/30 11:59:46;;;;;;;;;;;15.20;99.90;;;;;;4999356;28;19963;-81
2021/12/30 12:02:30;;;;;;;;;;;15.10;99.90;;;;;;5001165;28;19933;-77
2021/12/30 12:04:58;;;;;;;;;;;15.10;99.90;;;;;;4992728;28;20279;-77
2021/12/30 12:07:27;;;;;;;;;;;15.00;99.90;;;;;;4999400;28;19940;-77
2021/12/30 12:09:56;;;;;;;;;;;15.00;99.90;;;;;;4999517;28;19932;-79
2021/12/30 12:12:45;;;;;;;;;;;15.00;99.90;;;;;;4998049;28;20441;-81
2021/12/30 12:15:13;;;;;;;;;;;15.00;99.90;;;;;;4979681;28;19940;-82
2021/12/30 12:17:41;;;;;;;;;;;14.90;99.90;;;;;;4978613;28;19926;-82
2021/12/30 12:20:17;;;;;;;;;;;15.00;99.90;;;;;;4999410;28;19937;-81
2021/12/30 12:22:46;;;;;;;;;;;15.00;99.90;;;;;;4996777;28;19933;-83
2021/12/30 12:25:16;;;;;;;;;;;15.10;99.90;;;;;;4983497;28;19925;-84
2021/12/30 12:27:50;;;;;;;;;;;15.00;99.90;;;;;;4994459;28;19936;-84
2021/12/30 12:30:27;;;;;;;;;;;14.90;99.90;;;;;;4992324;28;19944;-84
2021/12/30 12:32:57;;;;;;;;;;;13.90;99.90;;;;;;4997328;28;19933;-83
2021/12/30 12:35:28;;;;;;;;;;;14.90;99.90;;;;;;4979640;28;19932;-83
2021/12/30 12:37:59;;;;;;;;;;;14.90;99.90;;;;;;4976442;28;19934;-83
2021/12/30 12:40:28;;;;;;;;;;;15.20;99.90;;;;;;4994978;28;19933;-82
2021/12/30 12:42:59;;;;;;;;;;;15.10;99.90;;;;;;5009656;28;19941;-81
2021/12/30 12:45:34;;;;;;;;;;;15.10;99.90;;;;;;4981915;28;19929;-84
2021/12/30 12:48:21;;;;;;;;;;;15.20;99.90;;;;;;4997722;28;20415;-84
2021/12/30 12:51:15;;;;;;;;;;;15.20;99.90;;;;;;4994906;28;19933;-82
2021/12/30 12:54:39;;;;;;;;;;;15.00;99.90;;;;;;5000569;28;19929;-82
2021/12/30 12:57:12;;;;;;;;;;;15.20;99.90;;;;;;4995824;28;19930;-81
2021/12/30 12:59:40;;;;;;;;;;;15.20;99.90;;;;;;4992353;28;19933;-80
2021/12/30 13:02:09;;;;;;;;;;;15.20;99.90;;;;;;4993334;28;19933;-79
2021/12/30 13:04:37;;;;;;;;;;;15.20;99.90;;;;;;4978755;28;20284;-81
2021/12/30 13:07:09;;;;;;;;;;;15.20;99.90;;;;;;4975659;28;19936;-83
2021/12/30 13:09:37;;;;;;;;;;;15.20;99.90;;;;;;4978457;28;20037;-81
2021/12/30 13:12:07;;;;;;;;;;;15.10;99.90;;;;;;5004857;28;20761;-82
2021/12/30 13:14:37;;;;;;;;;;;15.20;99.90;;;;;;4992648;28;19926;-82
2021/12/30 13:17:11;;;;;;;;;;;15.10;99.90;;;;;;4984638;28;19930;-83
2021/12/30 13:19:44;;;;;;;;;;;15.10;99.90;;;;;;4995651;28;19926;-85
2021/12/30 13:22:14;;;;;;;;;;;15.10;99.90;;;;;;4987433;28;19945;-83
2021/12/30 13:24:49;;;;;;;;;;;15.10;99.90;;;;;;5004600;28;19957;-82
2021/12/30 13:27:18;;;;;;;;;;;15.10;99.90;;;;;;4984004;28;19938;-82
2021/12/30 13:30:11;;;;;;;;;;;15.10;99.90;;;;;;4952407;28;19926;-84
2021/12/30 13:32:42;;;;;;;;;;;15.10;99.90;;;;;;4968695;28;19942;-82
2021/12/30 13:35:13;;;;;;;;;;;15.10;99.90;;;;;;4989923;28;19945;-82
2021/12/30 13:37:42;;;;;;;;;;;15.10;99.90;;;;;;5000006;28;19940;-82
2021/12/30 13:40:17;;;;;;;;;;;15.20;99.90;;;;;;4988430;28;19941;-88
2021/12/30 13:43:12;;;;;;;;;;;15.20;99.90;;;;;;4972520;28;19936;-86
2021/12/30 13:45:53;;;;;;;;;;;15.20;99.90;;;;;;4992973;28;19937;-82
2021/12/30 13:48:23;;;;;;;;;;;15.00;99.90;;;;;;4980834;28;19930;-82
2021/12/30 13:50:52;;;;;;;;;;;15.10;99.90;;;;;;4988124;28;19930;-83
2021/12/30 13:53:21;;;;;;;;;;;15.30;99.90;;;;;;4975499;28;19934;-82
2021/12/30 13:55:54;;;;;;;;;;;16.00;99.90;;;;;;4991633;28;19934;-82
2021/12/30 13:58:24;;;;;;;;;;;15.30;99.90;;;;;;4994488;28;19929;-83
2021/12/30 14:00:55;;;;;;;;;;;15.30;99.90;;;;;;5007484;28;20316;-83
2021/12/30 14:03:31;;;;;;;;;;;15.40;99.90;;;;;;4980996;28;20163;-83
2021/12/30 14:06:07;;;;;;;;;;;15.30;99.90;;;;;;4988421;28;19937;-83
2021/12/30 14:08:36;;;;;;;;;;;15.20;99.90;;;;;;4992030;28;19933;-85
2021/12/30 14:11:06;;;;;;;;;;;16.30;99.90;;;;;;5009996;28;19929;-83
2021/12/30 14:13:38;;;;;;;;;;;15.30;99.90;;;;;;4993873;28;19929;-83
2021/12/30 14:16:08;;;;;;;;;;;15.30;99.90;;;;;;4994420;28;19933;-82
2021/12/30 14:18:38;;;;;;;;;;;15.30;99.90;;;;;;4975212;28;19933;-82
2021/12/30 14:21:08;;;;;;;;;;;15.30;99.90;;;;;;4996844;28;19936;-82
2021/12/30 14:23:39;;;;;;;;;;;15.20;99.90;;;;;;4960702;28;19940;-84
2021/12/30 14:26:08;;;;;;;;;;;16.30;99.90;;;;;;5004664;28;19934;-82
2021/12/30 14:28:44;;;;;;;;;;;15.30;99.90;;;;;;4992158;28;20409;-84
2021/12/30 14:31:17;;;;;;;;;;;15.20;99.90;;;;;;4971688;28;19930;-82
2021/12/30 14:33:45;;;;;;;;;;;15.20;99.90;;;;;;4990655;28;20194;-82